sensor_id;sensor_type;location;lat;lon;timestamp;P1;durP1;ratioP1;P2;durP2;ratioP2
56511;SDS011;42408;53.238;5.686;2024-02-26T00:01:33;10.10;;;6.20;;
56511;SDS011;42408;53.238;5.686;2024-02-26T00:03:59;10.87;;;6.93;;
56511;SDS011;42408;53.238;5.686;2024-02-26T00:06:25;11.17;;;6.60;;
56511;SDS011;42408;53.238;5.686;2024-02-26T00:08:50;8.57;;;5.70;;
56511;SDS011;42408;53.238;5.686;2024-02-26T00:11:16;8.87;;;6.27;;
56511;SDS011;42408;53.238;5.686;2024-02-26T00:13:42;9.13;;;7.10;;
56511;SDS011;42408;53.238;5.686;2024-02-26T00:16:07;9.67;;;6.30;;
56511;SDS011;42408;53.238;5.686;2024-02-26T00:18:35;10.53;;;6.57;;
56511;SDS011;42408;53.238;5.686;2024-02-26T00:21:01;9.55;;;6.00;;
56511;SDS011;42408;53.238;5.686;2024-02-26T00:23:27;8.13;;;5.63;;
56511;SDS011;42408;53.238;5.686;2024-02-26T00:25:53;8.10;;;5.70;;
56511;SDS011;42408;53.238;5.686;2024-02-26T00:28:19;8.03;;;5.40;;
56511;SDS011;42408;53.238;5.686;2024-02-26T00:30:45;8.25;;;5.20;;
56511;SDS011;42408;53.238;5.686;2024-02-26T00:33:12;8.50;;;5.20;;
56511;SDS011;42408;53.238;5.686;2024-02-26T00:35:39;8.02;;;4.55;;
56511;SDS011;42408;53.238;5.686;2024-02-26T00:38:04;8.70;;;4.50;;
56511;SDS011;42408;53.238;5.686;2024-02-26T00:40:30;7.07;;;4.70;;
56511;SDS011;42408;53.238;5.686;2024-02-26T00:42:56;6.83;;;4.63;;
56511;SDS011;42408;53.238;5.686;2024-02-26T00:45:21;7.63;;;4.70;;
56511;SDS011;42408;53.238;5.686;2024-02-26T00:47:47;7.23;;;4.57;;
56511;SDS011;42408;53.238;5.686;2024-02-26T00:50:14;7.40;;;4.32;;
56511;SDS011;42408;53.238;5.686;2024-02-26T00:52:40;7.95;;;4.10;;
56511;SDS011;42408;53.238;5.686;2024-02-26T00:55:05;5.37;;;3.97;;
56511;SDS011;42408;53.238;5.686;2024-02-26T00:57:32;6.35;;;3.88;;
56511;SDS011;42408;53.238;5.686;2024-02-26T00:59:58;5.80;;;4.20;;
56511;SDS011;42408;53.238;5.686;2024-02-26T01:02:24;5.63;;;4.15;;
56511;SDS011;42408;53.238;5.686;2024-02-26T01:04:50;5.83;;;3.80;;
56511;SDS011;42408;53.238;5.686;2024-02-26T01:07:15;6.03;;;4.17;;
56511;SDS011;42408;53.238;5.686;2024-02-26T01:09:41;8.00;;;4.43;;
56511;SDS011;42408;53.238;5.686;2024-02-26T01:12:07;7.43;;;4.30;;
56511;SDS011;42408;53.238;5.686;2024-02-26T01:14:33;7.57;;;4.27;;
56511;SDS011;42408;53.238;5.686;2024-02-26T01:16:59;5.90;;;4.10;;
56511;SDS011;42408;53.238;5.686;2024-02-26T01:19:24;6.30;;;4.37;;
56511;SDS011;42408;53.238;5.686;2024-02-26T01:21:50;6.60;;;4.33;;
56511;SDS011;42408;53.238;5.686;2024-02-26T01:24:16;6.50;;;4.90;;
56511;SDS011;42408;53.238;5.686;2024-02-26T01:26:42;8.40;;;4.70;;
56511;SDS011;42408;53.238;5.686;2024-02-26T01:29:08;6.90;;;4.93;;
56511;SDS011;42408;53.238;5.686;2024-02-26T01:31:33;7.97;;;5.60;;
56511;SDS011;42408;53.238;5.686;2024-02-26T01:33:59;8.73;;;5.83;;
56511;SDS011;42408;53.238;5.686;2024-02-26T01:36:25;7.55;;;5.15;;
56511;SDS011;42408;53.238;5.686;2024-02-26T01:38:51;7.27;;;5.33;;
56511;SDS011;42408;53.238;5.686;2024-02-26T01:41:16;7.60;;;5.47;;
56511;SDS011;42408;53.238;5.686;2024-02-26T01:43:42;6.33;;;4.70;;
56511;SDS011;42408;53.238;5.686;2024-02-26T01:46:11;7.67;;;4.90;;
56511;SDS011;42408;53.238;5.686;2024-02-26T01:48:40;6.13;;;4.63;;
56511;SDS011;42408;53.238;5.686;2024-02-26T01:51:07;6.70;;;4.55;;
56511;SDS011;42408;53.238;5.686;2024-02-26T01:53:33;7.20;;;4.73;;
56511;SDS011;42408;53.238;5.686;2024-02-26T01:56:00;6.53;;;4.05;;
56511;SDS011;42408;53.238;5.686;2024-02-26T01:58:25;6.73;;;4.43;;
56511;SDS011;42408;53.238;5.686;2024-02-26T02:00:51;6.30;;;4.63;;
56511;SDS011;42408;53.238;5.686;2024-02-26T02:03:17;7.43;;;4.30;;
56511;SDS011;42408;53.238;5.686;2024-02-26T02:05:43;7.73;;;4.33;;
56511;SDS011;42408;53.238;5.686;2024-02-26T02:10:36;9.18;;;4.13;;
56511;SDS011;42408;53.238;5.686;2024-02-26T02:15:29;6.75;;;4.00;;
56511;SDS011;42408;53.238;5.686;2024-02-26T02:17:55;8.00;;;4.10;;
56511;SDS011;42408;53.238;5.686;2024-02-26T02:20:31;6.03;;;4.40;;
56511;SDS011;42408;53.238;5.686;2024-02-26T02:23:00;7.18;;;4.47;;
56511;SDS011;42408;53.238;5.686;2024-02-26T02:25:26;7.95;;;4.60;;
56511;SDS011;42408;53.238;5.686;2024-02-26T02:27:53;7.27;;;4.37;;
56511;SDS011;42408;53.238;5.686;2024-02-26T02:30:20;7.55;;;4.60;;
56511;SDS011;42408;53.238;5.686;2024-02-26T02:32:49;6.30;;;4.50;;
56511;SDS011;42408;53.238;5.686;2024-02-26T02:35:14;7.37;;;4.33;;
56511;SDS011;42408;53.238;5.686;2024-02-26T02:37:40;6.33;;;4.13;;
56511;SDS011;42408;53.238;5.686;2024-02-26T02:40:06;7.75;;;5.07;;
56511;SDS011;42408;53.238;5.686;2024-02-26T02:42:32;8.32;;;5.75;;
56511;SDS011;42408;53.238;5.686;2024-02-26T02:44:58;8.43;;;4.70;;
56511;SDS011;42408;53.238;5.686;2024-02-26T02:47:23;7.83;;;4.67;;
56511;SDS011;42408;53.238;5.686;2024-02-26T02:49:49;7.07;;;4.57;;
56511;SDS011;42408;53.238;5.686;2024-02-26T02:52:15;6.53;;;4.20;;
56511;SDS011;42408;53.238;5.686;2024-02-26T02:54:40;8.50;;;4.73;;
56511;SDS011;42408;53.238;5.686;2024-02-26T02:57:07;6.88;;;4.45;;
56511;SDS011;42408;53.238;5.686;2024-02-26T02:59:33;6.60;;;4.00;;
56511;SDS011;42408;53.238;5.686;2024-02-26T03:02:00;6.30;;;4.03;;
56511;SDS011;42408;53.238;5.686;2024-02-26T03:04:25;6.07;;;4.20;;
56511;SDS011;42408;53.238;5.686;2024-02-26T03:06:51;7.00;;;4.63;;
56511;SDS011;42408;53.238;5.686;2024-02-26T03:09:16;10.40;;;4.70;;
56511;SDS011;42408;53.238;5.686;2024-02-26T03:11:42;6.77;;;4.67;;
56511;SDS011;42408;53.238;5.686;2024-02-26T03:14:08;8.13;;;4.53;;
56511;SDS011;42408;53.238;5.686;2024-02-26T03:16:34;7.13;;;4.32;;
56511;SDS011;42408;53.238;5.686;2024-02-26T03:19:00;6.40;;;4.73;;
56511;SDS011;42408;53.238;5.686;2024-02-26T03:21:26;8.17;;;4.40;;
56511;SDS011;42408;53.238;5.686;2024-02-26T03:23:52;7.35;;;4.40;;
56511;SDS011;42408;53.238;5.686;2024-02-26T03:26:18;7.53;;;5.00;;
56511;SDS011;42408;53.238;5.686;2024-02-26T03:28:44;7.00;;;4.73;;
56511;SDS011;42408;53.238;5.686;2024-02-26T03:31:09;7.00;;;4.47;;
56511;SDS011;42408;53.238;5.686;2024-02-26T03:33:38;9.15;;;4.45;;
56511;SDS011;42408;53.238;5.686;2024-02-26T03:36:04;5.83;;;4.07;;
56511;SDS011;42408;53.238;5.686;2024-02-26T03:38:30;6.95;;;4.32;;
56511;SDS011;42408;53.238;5.686;2024-02-26T03:40:55;8.03;;;4.40;;
56511;SDS011;42408;53.238;5.686;2024-02-26T03:43:21;7.40;;;4.50;;
56511;SDS011;42408;53.238;5.686;2024-02-26T03:45:47;8.90;;;4.50;;
56511;SDS011;42408;53.238;5.686;2024-02-26T03:48:12;5.27;;;4.03;;
56511;SDS011;42408;53.238;5.686;2024-02-26T03:50:38;8.87;;;4.60;;
56511;SDS011;42408;53.238;5.686;2024-02-26T03:53:03;6.43;;;4.03;;
56511;SDS011;42408;53.238;5.686;2024-02-26T03:55:29;7.47;;;4.60;;
56511;SDS011;42408;53.238;5.686;2024-02-26T03:57:55;7.10;;;4.50;;
56511;SDS011;42408;53.238;5.686;2024-02-26T04:00:21;7.60;;;4.07;;
56511;SDS011;42408;53.238;5.686;2024-02-26T04:02:47;8.25;;;4.60;;
56511;SDS011;42408;53.238;5.686;2024-02-26T04:05:13;9.73;;;4.43;;
56511;SDS011;42408;53.238;5.686;2024-02-26T04:07:39;7.35;;;4.32;;
56511;SDS011;42408;53.238;5.686;2024-02-26T04:10:11;7.97;;;4.38;;
56511;SDS011;42408;53.238;5.686;2024-02-26T04:12:41;8.05;;;4.75;;
56511;SDS011;42408;53.238;5.686;2024-02-26T04:15:08;7.45;;;5.00;;
56511;SDS011;42408;53.238;5.686;2024-02-26T04:17:35;10.07;;;4.63;;
56511;SDS011;42408;53.238;5.686;2024-02-26T04:20:02;5.97;;;4.38;;
56511;SDS011;42408;53.238;5.686;2024-02-26T04:22:28;7.82;;;5.20;;
56511;SDS011;42408;53.238;5.686;2024-02-26T04:24:54;7.90;;;6.03;;
56511;SDS011;42408;53.238;5.686;2024-02-26T04:27:19;7.77;;;5.40;;
56511;SDS011;42408;53.238;5.686;2024-02-26T04:29:45;8.70;;;5.90;;
56511;SDS011;42408;53.238;5.686;2024-02-26T04:32:10;8.63;;;6.27;;
56511;SDS011;42408;53.238;5.686;2024-02-26T04:34:36;9.67;;;6.23;;
56511;SDS011;42408;53.238;5.686;2024-02-26T04:37:02;9.77;;;7.33;;
56511;SDS011;42408;53.238;5.686;2024-02-26T04:39:28;10.87;;;6.60;;
56511;SDS011;42408;53.238;5.686;2024-02-26T04:41:53;10.80;;;7.73;;
56511;SDS011;42408;53.238;5.686;2024-02-26T04:44:19;8.20;;;6.23;;
56511;SDS011;42408;53.238;5.686;2024-02-26T04:46:44;8.83;;;6.20;;
56511;SDS011;42408;53.238;5.686;2024-02-26T04:49:10;9.67;;;5.60;;
56511;SDS011;42408;53.238;5.686;2024-02-26T04:51:36;10.47;;;6.17;;
56511;SDS011;42408;53.238;5.686;2024-02-26T04:54:02;9.15;;;6.10;;
56511;SDS011;42408;53.238;5.686;2024-02-26T04:56:28;9.43;;;6.27;;
56511;SDS011;42408;53.238;5.686;2024-02-26T04:58:53;10.03;;;6.47;;
56511;SDS011;42408;53.238;5.686;2024-02-26T05:01:19;8.00;;;6.23;;
56511;SDS011;42408;53.238;5.686;2024-02-26T05:03:45;9.07;;;5.90;;
56511;SDS011;42408;53.238;5.686;2024-02-26T05:06:10;9.67;;;6.13;;
56511;SDS011;42408;53.238;5.686;2024-02-26T05:08:36;9.00;;;6.43;;
56511;SDS011;42408;53.238;5.686;2024-02-26T05:11:03;9.90;;;5.82;;
56511;SDS011;42408;53.238;5.686;2024-02-26T05:13:30;9.20;;;6.28;;
56511;SDS011;42408;53.238;5.686;2024-02-26T05:15:55;9.40;;;6.30;;
56511;SDS011;42408;53.238;5.686;2024-02-26T05:18:24;8.97;;;5.23;;
56511;SDS011;42408;53.238;5.686;2024-02-26T05:20:49;11.52;;;6.15;;
56511;SDS011;42408;53.238;5.686;2024-02-26T05:23:15;7.10;;;5.43;;
56511;SDS011;42408;53.238;5.686;2024-02-26T05:25:41;8.93;;;4.70;;
56511;SDS011;42408;53.238;5.686;2024-02-26T05:28:07;12.43;;;5.07;;
56511;SDS011;42408;53.238;5.686;2024-02-26T05:30:32;6.87;;;4.60;;
56511;SDS011;42408;53.238;5.686;2024-02-26T05:32:58;7.83;;;4.30;;
56511;SDS011;42408;53.238;5.686;2024-02-26T05:35:24;7.83;;;4.57;;
56511;SDS011;42408;53.238;5.686;2024-02-26T05:37:51;7.60;;;4.28;;
56511;SDS011;42408;53.238;5.686;2024-02-26T05:40:16;8.70;;;5.00;;
56511;SDS011;42408;53.238;5.686;2024-02-26T05:42:42;8.30;;;4.23;;
56511;SDS011;42408;53.238;5.686;2024-02-26T05:45:10;6.07;;;3.90;;
56511;SDS011;42408;53.238;5.686;2024-02-26T05:47:35;6.67;;;3.90;;
56511;SDS011;42408;53.238;5.686;2024-02-26T05:50:07;5.43;;;3.53;;
56511;SDS011;42408;53.238;5.686;2024-02-26T05:52:35;7.95;;;3.88;;
56511;SDS011;42408;53.238;5.686;2024-02-26T05:55:06;8.13;;;4.22;;
56511;SDS011;42408;53.238;5.686;2024-02-26T05:57:32;6.53;;;3.55;;
56511;SDS011;42408;53.238;5.686;2024-02-26T06:02:28;7.70;;;3.50;;
56511;SDS011;42408;53.238;5.686;2024-02-26T06:04:54;4.93;;;3.30;;
56511;SDS011;42408;53.238;5.686;2024-02-26T06:07:20;6.57;;;3.30;;
56511;SDS011;42408;53.238;5.686;2024-02-26T06:09:45;5.90;;;3.27;;
56511;SDS011;42408;53.238;5.686;2024-02-26T06:12:11;5.93;;;3.10;;
56511;SDS011;42408;53.238;5.686;2024-02-26T06:14:37;4.47;;;2.80;;
56511;SDS011;42408;53.238;5.686;2024-02-26T06:17:02;4.97;;;2.53;;
56511;SDS011;42408;53.238;5.686;2024-02-26T06:19:28;4.40;;;2.30;;
56511;SDS011;42408;53.238;5.686;2024-02-26T06:21:54;8.80;;;2.43;;
56511;SDS011;42408;53.238;5.686;2024-02-26T06:24:19;3.90;;;2.40;;
56511;SDS011;42408;53.238;5.686;2024-02-26T06:26:47;4.57;;;2.30;;
56511;SDS011;42408;53.238;5.686;2024-02-26T06:29:13;6.73;;;2.40;;
56511;SDS011;42408;53.238;5.686;2024-02-26T06:31:39;5.10;;;2.35;;
56511;SDS011;42408;53.238;5.686;2024-02-26T06:34:05;6.20;;;2.40;;
56511;SDS011;42408;53.238;5.686;2024-02-26T06:36:30;6.57;;;1.90;;
56511;SDS011;42408;53.238;5.686;2024-02-26T06:38:57;6.50;;;2.10;;
56511;SDS011;42408;53.238;5.686;2024-02-26T06:41:22;5.57;;;2.13;;
56511;SDS011;42408;53.238;5.686;2024-02-26T06:43:55;5.25;;;2.40;;
56511;SDS011;42408;53.238;5.686;2024-02-26T06:46:22;7.35;;;2.70;;
56511;SDS011;42408;53.238;5.686;2024-02-26T06:48:48;4.50;;;2.50;;
56511;SDS011;42408;53.238;5.686;2024-02-26T06:51:14;3.60;;;2.55;;
56511;SDS011;42408;53.238;5.686;2024-02-26T06:53:40;6.20;;;2.50;;
56511;SDS011;42408;53.238;5.686;2024-02-26T06:56:05;4.27;;;2.37;;
56511;SDS011;42408;53.238;5.686;2024-02-26T06:58:31;5.37;;;2.27;;
56511;SDS011;42408;53.238;5.686;2024-02-26T07:00:57;5.63;;;2.80;;
56511;SDS011;42408;53.238;5.686;2024-02-26T07:03:22;4.60;;;2.60;;
56511;SDS011;42408;53.238;5.686;2024-02-26T07:05:49;5.50;;;2.63;;
56511;SDS011;42408;53.238;5.686;2024-02-26T07:08:15;6.65;;;2.97;;
56511;SDS011;42408;53.238;5.686;2024-02-26T07:10:41;4.97;;;2.83;;
56511;SDS011;42408;53.238;5.686;2024-02-26T07:13:07;5.63;;;2.60;;
56511;SDS011;42408;53.238;5.686;2024-02-26T07:15:32;6.83;;;2.83;;
56511;SDS011;42408;53.238;5.686;2024-02-26T07:17:58;5.87;;;3.87;;
56511;SDS011;42408;53.238;5.686;2024-02-26T07:20:28;5.85;;;2.85;;
56511;SDS011;42408;53.238;5.686;2024-02-26T07:22:57;6.28;;;2.95;;
56511;SDS011;42408;53.238;5.686;2024-02-26T07:25:23;5.82;;;2.88;;
56511;SDS011;42408;53.238;5.686;2024-02-26T07:27:49;5.53;;;3.40;;
56511;SDS011;42408;53.238;5.686;2024-02-26T07:30:15;3.97;;;2.30;;
56511;SDS011;42408;53.238;5.686;2024-02-26T07:32:42;7.25;;;3.10;;
56511;SDS011;42408;53.238;5.686;2024-02-26T07:35:08;6.68;;;2.88;;
56511;SDS011;42408;53.238;5.686;2024-02-26T07:37:33;5.83;;;2.63;;
56511;SDS011;42408;53.238;5.686;2024-02-26T07:39:59;4.53;;;2.63;;
56511;SDS011;42408;53.238;5.686;2024-02-26T07:42:25;4.27;;;2.93;;
56511;SDS011;42408;53.238;5.686;2024-02-26T07:44:51;5.10;;;2.70;;
56511;SDS011;42408;53.238;5.686;2024-02-26T07:47:17;5.05;;;3.03;;
56511;SDS011;42408;53.238;5.686;2024-02-26T07:49:43;5.10;;;3.20;;
56511;SDS011;42408;53.238;5.686;2024-02-26T07:52:09;5.32;;;2.83;;
56511;SDS011;42408;53.238;5.686;2024-02-26T07:54:35;4.90;;;2.80;;
56511;SDS011;42408;53.238;5.686;2024-02-26T07:57:01;4.60;;;3.00;;
56511;SDS011;42408;53.238;5.686;2024-02-26T07:59:30;5.47;;;3.33;;
56511;SDS011;42408;53.238;5.686;2024-02-26T08:01:56;5.93;;;3.23;;
56511;SDS011;42408;53.238;5.686;2024-02-26T08:04:22;8.47;;;3.20;;
56511;SDS011;42408;53.238;5.686;2024-02-26T08:06:47;5.80;;;3.50;;
56511;SDS011;42408;53.238;5.686;2024-02-26T08:09:13;6.20;;;3.47;;
56511;SDS011;42408;53.238;5.686;2024-02-26T08:11:39;7.67;;;3.47;;
56511;SDS011;42408;53.238;5.686;2024-02-26T08:14:04;5.90;;;3.57;;
56511;SDS011;42408;53.238;5.686;2024-02-26T08:16:30;7.60;;;3.97;;
56511;SDS011;42408;53.238;5.686;2024-02-26T08:18:56;8.00;;;3.90;;
56511;SDS011;42408;53.238;5.686;2024-02-26T08:21:21;7.30;;;3.87;;
56511;SDS011;42408;53.238;5.686;2024-02-26T08:23:47;6.60;;;3.77;;
56511;SDS011;42408;53.238;5.686;2024-02-26T08:26:13;7.27;;;3.97;;
56511;SDS011;42408;53.238;5.686;2024-02-26T08:28:38;8.27;;;3.73;;
56511;SDS011;42408;53.238;5.686;2024-02-26T08:31:04;6.17;;;3.47;;
56511;SDS011;42408;53.238;5.686;2024-02-26T08:33:30;6.57;;;3.83;;
56511;SDS011;42408;53.238;5.686;2024-02-26T08:35:56;7.17;;;3.43;;
56511;SDS011;42408;53.238;5.686;2024-02-26T08:38:22;6.67;;;3.40;;
56511;SDS011;42408;53.238;5.686;2024-02-26T08:40:48;6.40;;;3.70;;
56511;SDS011;42408;53.238;5.686;2024-02-26T08:43:14;6.80;;;3.55;;
56511;SDS011;42408;53.238;5.686;2024-02-26T08:45:39;9.10;;;3.80;;
56511;SDS011;42408;53.238;5.686;2024-02-26T08:48:05;7.67;;;3.90;;
56511;SDS011;42408;53.238;5.686;2024-02-26T08:50:31;7.28;;;3.58;;
56511;SDS011;42408;53.238;5.686;2024-02-26T08:52:57;8.40;;;3.80;;
56511;SDS011;42408;53.238;5.686;2024-02-26T08:55:22;6.47;;;3.53;;
56511;SDS011;42408;53.238;5.686;2024-02-26T08:57:48;7.37;;;3.53;;
56511;SDS011;42408;53.238;5.686;2024-02-26T09:00:14;6.93;;;3.50;;
56511;SDS011;42408;53.238;5.686;2024-02-26T09:02:45;8.30;;;3.15;;
56511;SDS011;42408;53.238;5.686;2024-02-26T09:05:11;7.47;;;3.42;;
56511;SDS011;42408;53.238;5.686;2024-02-26T09:07:38;7.22;;;3.45;;
56511;SDS011;42408;53.238;5.686;2024-02-26T09:10:05;8.00;;;3.90;;
56511;SDS011;42408;53.238;5.686;2024-02-26T09:12:30;6.53;;;3.30;;
56511;SDS011;42408;53.238;5.686;2024-02-26T09:14:56;6.50;;;3.20;;
56511;SDS011;42408;53.238;5.686;2024-02-26T09:17:22;8.17;;;3.23;;
56511;SDS011;42408;53.238;5.686;2024-02-26T09:19:48;5.30;;;3.33;;
56511;SDS011;42408;53.238;5.686;2024-02-26T09:22:13;5.97;;;2.67;;
56511;SDS011;42408;53.238;5.686;2024-02-26T09:24:39;5.20;;;2.67;;
56511;SDS011;42408;53.238;5.686;2024-02-26T09:27:05;6.17;;;3.17;;
56511;SDS011;42408;53.238;5.686;2024-02-26T09:29:30;9.00;;;3.33;;
56511;SDS011;42408;53.238;5.686;2024-02-26T09:31:56;6.90;;;3.00;;
56511;SDS011;42408;53.238;5.686;2024-02-26T09:34:22;5.43;;;3.43;;
56511;SDS011;42408;53.238;5.686;2024-02-26T09:36:47;5.97;;;3.03;;
56511;SDS011;42408;53.238;5.686;2024-02-26T09:39:13;7.53;;;3.43;;
56511;SDS011;42408;53.238;5.686;2024-02-26T09:41:39;4.78;;;2.70;;
56511;SDS011;42408;53.238;5.686;2024-02-26T09:44:05;4.77;;;2.70;;
56511;SDS011;42408;53.238;5.686;2024-02-26T09:46:32;6.05;;;2.42;;
56511;SDS011;42408;53.238;5.686;2024-02-26T09:48:58;5.75;;;2.83;;
56511;SDS011;42408;53.238;5.686;2024-02-26T09:51:24;5.93;;;2.80;;
56511;SDS011;42408;53.238;5.686;2024-02-26T09:53:53;6.35;;;2.30;;
56511;SDS011;42408;53.238;5.686;2024-02-26T09:56:21;4.65;;;2.75;;
56511;SDS011;42408;53.238;5.686;2024-02-26T09:58:47;5.47;;;2.77;;
56511;SDS011;42408;53.238;5.686;2024-02-26T10:01:18;4.15;;;2.63;;
56511;SDS011;42408;53.238;5.686;2024-02-26T10:03:46;6.13;;;2.80;;
56511;SDS011;42408;53.238;5.686;2024-02-26T10:06:16;7.75;;;2.85;;
56511;SDS011;42408;53.238;5.686;2024-02-26T10:08:42;4.50;;;2.50;;
56511;SDS011;42408;53.238;5.686;2024-02-26T10:11:09;5.18;;;2.47;;
56511;SDS011;42408;53.238;5.686;2024-02-26T10:13:36;6.03;;;2.90;;
56511;SDS011;42408;53.238;5.686;2024-02-26T10:16:02;5.50;;;2.90;;
56511;SDS011;42408;53.238;5.686;2024-02-26T10:18:49;9.55;;;3.10;;
56511;SDS011;42408;53.238;5.686;2024-02-26T10:21:16;4.15;;;2.63;;
56511;SDS011;42408;53.238;5.686;2024-02-26T10:23:45;5.40;;;2.83;;
56511;SDS011;42408;53.238;5.686;2024-02-26T10:26:12;6.28;;;3.00;;
56511;SDS011;42408;53.238;5.686;2024-02-26T10:28:43;6.35;;;2.70;;
56511;SDS011;42408;53.238;5.686;2024-02-26T10:31:09;5.97;;;3.17;;
56511;SDS011;42408;53.238;5.686;2024-02-26T10:33:35;5.53;;;3.33;;
56511;SDS011;42408;53.238;5.686;2024-02-26T10:36:03;8.77;;;3.47;;
56511;SDS011;42408;53.238;5.686;2024-02-26T10:38:33;7.97;;;3.40;;
56511;SDS011;42408;53.238;5.686;2024-02-26T10:43:26;5.57;;;3.55;;
56511;SDS011;42408;53.238;5.686;2024-02-26T10:45:52;9.03;;;3.40;;
56511;SDS011;42408;53.238;5.686;2024-02-26T10:48:19;6.32;;;3.45;;
56511;SDS011;42408;53.238;5.686;2024-02-26T10:50:45;11.47;;;4.27;;
56511;SDS011;42408;53.238;5.686;2024-02-26T10:53:21;7.38;;;3.53;;
56511;SDS011;42408;53.238;5.686;2024-02-26T10:55:48;8.05;;;4.05;;
56511;SDS011;42408;53.238;5.686;2024-02-26T10:58:19;6.68;;;4.05;;
56511;SDS011;42408;53.238;5.686;2024-02-26T11:00:45;8.10;;;3.92;;
56511;SDS011;42408;53.238;5.686;2024-02-26T11:03:13;6.22;;;3.70;;
56511;SDS011;42408;53.238;5.686;2024-02-26T11:05:41;7.53;;;4.15;;
56511;SDS011;42408;53.238;5.686;2024-02-26T11:08:09;9.23;;;4.50;;
56511;SDS011;42408;53.238;5.686;2024-02-26T11:10:36;5.68;;;3.88;;
56511;SDS011;42408;53.238;5.686;2024-02-26T11:13:03;7.43;;;4.75;;
56511;SDS011;42408;53.238;5.686;2024-02-26T11:15:31;13.02;;;4.95;;
56511;SDS011;42408;53.238;5.686;2024-02-26T11:17:58;10.85;;;4.85;;
56511;SDS011;42408;53.238;5.686;2024-02-26T11:20:27;7.28;;;4.72;;
56511;SDS011;42408;53.238;5.686;2024-02-26T11:22:54;8.95;;;5.05;;
56511;SDS011;42408;53.238;5.686;2024-02-26T11:25:20;9.70;;;4.60;;
56511;SDS011;42408;53.238;5.686;2024-02-26T11:27:48;9.48;;;4.72;;
56511;SDS011;42408;53.238;5.686;2024-02-26T11:30:24;9.35;;;5.18;;
56511;SDS011;42408;53.238;5.686;2024-02-26T11:32:51;7.80;;;4.45;;
56511;SDS011;42408;53.238;5.686;2024-02-26T11:35:18;7.57;;;4.32;;
56511;SDS011;42408;53.238;5.686;2024-02-26T11:37:51;8.00;;;3.80;;
56511;SDS011;42408;53.238;5.686;2024-02-26T11:40:18;7.88;;;4.32;;
56511;SDS011;42408;53.238;5.686;2024-02-26T11:42:44;8.33;;;5.13;;
56511;SDS011;42408;53.238;5.686;2024-02-26T11:48:04;8.93;;;4.50;;
56511;SDS011;42408;53.238;5.686;2024-02-26T11:50:36;10.38;;;5.35;;
56511;SDS011;42408;53.238;5.686;2024-02-26T11:53:22;8.38;;;4.63;;
56511;SDS011;42408;53.238;5.686;2024-02-26T11:58:42;9.23;;;5.40;;
56511;SDS011;42408;53.238;5.686;2024-02-26T12:09:31;7.25;;;4.22;;
56511;SDS011;42408;53.238;5.686;2024-02-26T12:11:57;8.45;;;4.03;;
56511;SDS011;42408;53.238;5.686;2024-02-26T12:14:25;9.07;;;4.47;;
56511;SDS011;42408;53.238;5.686;2024-02-26T12:16:51;7.28;;;3.53;;
56511;SDS011;42408;53.238;5.686;2024-02-26T12:19:18;5.50;;;3.22;;
56511;SDS011;42408;53.238;5.686;2024-02-26T12:21:43;9.40;;;2.87;;
56511;SDS011;42408;53.238;5.686;2024-02-26T12:24:09;5.33;;;3.23;;
56511;SDS011;42408;53.238;5.686;2024-02-26T12:26:36;7.22;;;3.13;;
56511;SDS011;42408;53.238;5.686;2024-02-26T12:29:01;6.83;;;3.10;;
56511;SDS011;42408;53.238;5.686;2024-02-26T12:31:27;8.63;;;3.10;;
56511;SDS011;42408;53.238;5.686;2024-02-26T12:33:54;5.22;;;2.70;;
56511;SDS011;42408;53.238;5.686;2024-02-26T12:36:20;8.32;;;3.47;;
56511;SDS011;42408;53.238;5.686;2024-02-26T12:38:48;9.65;;;4.35;;
56511;SDS011;42408;53.238;5.686;2024-02-26T12:41:16;5.63;;;3.05;;
56511;SDS011;42408;53.238;5.686;2024-02-26T12:43:42;7.60;;;2.85;;
56511;SDS011;42408;53.238;5.686;2024-02-26T12:46:07;7.50;;;3.27;;
56511;SDS011;42408;53.238;5.686;2024-02-26T12:48:33;8.63;;;3.00;;
56511;SDS011;42408;53.238;5.686;2024-02-26T12:50:59;7.53;;;3.80;;
56511;SDS011;42408;53.238;5.686;2024-02-26T12:53:26;7.30;;;3.78;;
56511;SDS011;42408;53.238;5.686;2024-02-26T12:55:53;9.27;;;3.95;;
56511;SDS011;42408;53.238;5.686;2024-02-26T12:58:20;8.88;;;3.47;;
56511;SDS011;42408;53.238;5.686;2024-02-26T13:00:49;7.97;;;3.25;;
56511;SDS011;42408;53.238;5.686;2024-02-26T13:05:42;9.80;;;3.75;;
56511;SDS011;42408;53.238;5.686;2024-02-26T13:08:08;7.40;;;3.23;;
56511;SDS011;42408;53.238;5.686;2024-02-26T13:10:33;7.93;;;4.00;;
56511;SDS011;42408;53.238;5.686;2024-02-26T13:13:01;11.17;;;3.90;;
56511;SDS011;42408;53.238;5.686;2024-02-26T13:15:27;7.50;;;2.83;;
56511;SDS011;42408;53.238;5.686;2024-02-26T13:17:53;6.53;;;2.63;;
56511;SDS011;42408;53.238;5.686;2024-02-26T13:23:03;8.73;;;3.20;;
56511;SDS011;42408;53.238;5.686;2024-02-26T13:25:30;9.13;;;2.78;;
56511;SDS011;42408;53.238;5.686;2024-02-26T13:28:09;5.72;;;3.20;;
56511;SDS011;42408;53.238;5.686;2024-02-26T13:30:41;7.82;;;3.30;;
56511;SDS011;42408;53.238;5.686;2024-02-26T13:33:14;6.15;;;3.58;;
56511;SDS011;42408;53.238;5.686;2024-02-26T13:35:40;9.95;;;3.88;;
56511;SDS011;42408;53.238;5.686;2024-02-26T13:38:06;8.50;;;3.50;;
56511;SDS011;42408;53.238;5.686;2024-02-26T13:40:32;9.60;;;3.40;;
56511;SDS011;42408;53.238;5.686;2024-02-26T13:42:59;8.55;;;3.33;;
56511;SDS011;42408;53.238;5.686;2024-02-26T13:45:25;4.68;;;2.72;;
56511;SDS011;42408;53.238;5.686;2024-02-26T13:47:51;7.27;;;2.80;;
56511;SDS011;42408;53.238;5.686;2024-02-26T13:50:17;9.73;;;3.72;;
56511;SDS011;42408;53.238;5.686;2024-02-26T13:52:46;5.38;;;3.40;;
56511;SDS011;42408;53.238;5.686;2024-02-26T13:55:12;7.13;;;3.65;;
56511;SDS011;42408;53.238;5.686;2024-02-26T13:57:39;8.85;;;3.47;;
56511;SDS011;42408;53.238;5.686;2024-02-26T14:00:05;6.68;;;3.00;;
56511;SDS011;42408;53.238;5.686;2024-02-26T14:02:34;5.47;;;2.60;;
56511;SDS011;42408;53.238;5.686;2024-02-26T14:05:01;4.68;;;2.58;;
56511;SDS011;42408;53.238;5.686;2024-02-26T14:07:29;4.88;;;2.47;;
56511;SDS011;42408;53.238;5.686;2024-02-26T14:09:57;5.95;;;2.45;;
56511;SDS011;42408;53.238;5.686;2024-02-26T14:12:23;4.45;;;2.65;;
56511;SDS011;42408;53.238;5.686;2024-02-26T14:14:48;6.17;;;2.60;;
56511;SDS011;42408;53.238;5.686;2024-02-26T14:17:14;4.90;;;2.27;;
56511;SDS011;42408;53.238;5.686;2024-02-26T14:19:40;5.43;;;2.53;;
56511;SDS011;42408;53.238;5.686;2024-02-26T14:22:10;6.35;;;2.50;;
56511;SDS011;42408;53.238;5.686;2024-02-26T14:24:36;5.50;;;1.90;;
56511;SDS011;42408;53.238;5.686;2024-02-26T14:27:02;5.33;;;1.93;;
56511;SDS011;42408;53.238;5.686;2024-02-26T14:29:29;5.35;;;2.03;;
56511;SDS011;42408;53.238;5.686;2024-02-26T14:32:03;4.90;;;2.10;;
56511;SDS011;42408;53.238;5.686;2024-02-26T14:34:29;5.93;;;2.20;;
56511;SDS011;42408;53.238;5.686;2024-02-26T14:36:54;4.60;;;1.80;;
56511;SDS011;42408;53.238;5.686;2024-02-26T14:39:20;6.40;;;1.95;;
56511;SDS011;42408;53.238;5.686;2024-02-26T14:41:46;5.23;;;2.10;;
56511;SDS011;42408;53.238;5.686;2024-02-26T14:44:12;6.97;;;2.13;;
56511;SDS011;42408;53.238;5.686;2024-02-26T14:46:38;5.35;;;2.10;;
56511;SDS011;42408;53.238;5.686;2024-02-26T14:49:03;5.20;;;2.17;;
56511;SDS011;42408;53.238;5.686;2024-02-26T14:51:30;5.22;;;2.25;;
56511;SDS011;42408;53.238;5.686;2024-02-26T14:53:56;6.30;;;2.40;;
56511;SDS011;42408;53.238;5.686;2024-02-26T14:56:24;3.47;;;1.52;;
56511;SDS011;42408;53.238;5.686;2024-02-26T14:58:49;3.93;;;1.60;;
56511;SDS011;42408;53.238;5.686;2024-02-26T15:01:15;4.27;;;1.70;;
56511;SDS011;42408;53.238;5.686;2024-02-26T15:03:41;3.47;;;1.63;;
56511;SDS011;42408;53.238;5.686;2024-02-26T15:06:06;6.43;;;2.10;;
56511;SDS011;42408;53.238;5.686;2024-02-26T15:08:32;3.83;;;1.80;;
56511;SDS011;42408;53.238;5.686;2024-02-26T15:10:58;4.87;;;1.80;;
56511;SDS011;42408;53.238;5.686;2024-02-26T15:13:25;5.28;;;2.10;;